Eiyoshi Maru No.5 — JD2965 — position and weather

sailwx.info

Track history (hours):
 
Tides and Currents Weather Stations Pressure Air Temp Water Temp Dewpoint Dewpoint Depression Visibility Wind Speed Wind Dir Waves Ship Positions

Eiyoshi Maru No.5

Last reported at 2017-Dec-17 06:01 UTC. Time now 2017-Dec-17 15:30 UTC.
Position N 34°44' E 134°47'.

Length 64 m; draft 3.7 m.

Type: Cargo ship. MMSI: 431001092.

Date/timePositionNaut miles runAvg speedWind from/ knotsBaromVisibWave heightAir tempDewpointWater temp
2017-Dec-17 06:01N 34°44' E 134°47'0 3.9
2017-Dec-17 06:00N 34°44' E 134°47'4 6.8
2017-Dec-17 05:24N 34°43' E 134°42'512.1
2017-Dec-17 05:00N 34°43' E 134°36'2812.3
2017-Dec-17 02:43N 34°32' E 134°05'  
2017-Dec-14 01:44N 34°37' E 134°31'210.5
2017-Dec-14 01:30N 34°37' E 134°34'510.7
2017-Dec-14 01:00N 34°38' E 134°41'510.6
2017-Dec-14 00:30N 34°38' E 134°47'510.5
2017-Dec-14 00:00N 34°37' E 134°53'611.2
2017-Dec-13 23:30N 34°38' E 135°00'510.9
2017-Dec-13 23:00N 34°36' E 135°07'511.0
2017-Dec-13 22:30N 34°36' E 135°13'511.0
2017-Dec-13 22:00N 34°36' E 135°20'510.9
2017-Dec-13 21:30N 34°35' E 135°26'1 0.1
2017-Dec-13 05:55N 34°35' E 135°27'1 0.1
2017-Dec-12 07:31N 34°34' E 135°27'0 0.0
2017-Dec-12 07:30N 34°34' E 135°27'4 7.8
2017-Dec-12 07:00N 34°36' E 135°23'510.5
2017-Dec-12 06:30N 34°36' E 135°17'510.7
2017-Dec-12 06:00N 34°35' E 135°10'510.4
2017-Dec-12 05:30N 34°35' E 135°04'4 9.0
2017-Dec-12 05:01N 34°37' E 134°59'510.3
2017-Dec-12 04:30N 34°35' E 134°53'510.4
2017-Dec-12 04:00N 34°33' E 134°47'510.5
2017-Dec-12 03:30N 34°31' E 134°41'510.4
2017-Dec-12 03:00N 34°29' E 134°35'510.3
2017-Dec-12 02:29N 34°27' E 134°29'  
2017-Dec-09 02:45N 34°13' E 134°40'511.1
2017-Dec-09 02:18N 34°08' E 134°39'411.7
2017-Dec-09 01:57N 34°04' E 134°38'2 0.1
2017-Dec-07 08:47N 34°03' E 134°36'  
Track history (hours):
 
Tides and Currents Weather Stations Pressure Air Temp Water Temp Dewpoint Dewpoint Depression Visibility Wind Speed Wind Dir Waves Ship Positions

Eiyoshi Maru No.5

Last reported at 2017-Dec-17 06:01 UTC. Time now 2017-Dec-17 15:30 UTC.
Position N 34°44' E 134°47'.

Length 64 m; draft 3.7 m.

Type: Cargo ship. MMSI: 431001092.

Date/timePositionNaut miles runAvg speedWind from/ knotsBaromVisibWave heightAir tempDewpointWater temp
2017-Dec-17 06:01N 34°44' E 134°47'0 3.9
2017-Dec-17 06:00N 34°44' E 134°47'4 6.8
2017-Dec-17 05:24N 34°43' E 134°42'512.1
2017-Dec-17 05:00N 34°43' E 134°36'2812.3
2017-Dec-17 02:43N 34°32' E 134°05'  
2017-Dec-14 01:44N 34°37' E 134°31'210.5
2017-Dec-14 01:30N 34°37' E 134°34'510.7
2017-Dec-14 01:00N 34°38' E 134°41'510.6
2017-Dec-14 00:30N 34°38' E 134°47'510.5
2017-Dec-14 00:00N 34°37' E 134°53'611.2
2017-Dec-13 23:30N 34°38' E 135°00'510.9
2017-Dec-13 23:00N 34°36' E 135°07'511.0
2017-Dec-13 22:30N 34°36' E 135°13'511.0
2017-Dec-13 22:00N 34°36' E 135°20'510.9
2017-Dec-13 21:30N 34°35' E 135°26'1 0.1
2017-Dec-13 05:55N 34°35' E 135°27'1 0.1
2017-Dec-12 07:31N 34°34' E 135°27'0 0.0
2017-Dec-12 07:30N 34°34' E 135°27'4 7.8
2017-Dec-12 07:00N 34°36' E 135°23'510.5
2017-Dec-12 06:30N 34°36' E 135°17'510.7
2017-Dec-12 06:00N 34°35' E 135°10'510.4
2017-Dec-12 05:30N 34°35' E 135°04'4 9.0
2017-Dec-12 05:01N 34°37' E 134°59'510.3
2017-Dec-12 04:30N 34°35' E 134°53'510.4
2017-Dec-12 04:00N 34°33' E 134°47'510.5
2017-Dec-12 03:30N 34°31' E 134°41'510.4
2017-Dec-12 03:00N 34°29' E 134°35'510.3
2017-Dec-12 02:29N 34°27' E 134°29'  
2017-Dec-09 02:45N 34°13' E 134°40'511.1
2017-Dec-09 02:18N 34°08' E 134°39'411.7
2017-Dec-09 01:57N 34°04' E 134°38'2 0.1
2017-Dec-07 08:47N 34°03' E 134°36'  

Dump ship's entire track history